sensor_id;sensor_type;location;lat;lon;timestamp;pressure;altitude;pressure_sealevel;temperature;humidity
10824;BME280;39116;59.332;18.034;2023-04-27T00:01:45;100069.53;;;3.33;100.00
10824;BME280;39116;59.332;18.034;2023-04-27T00:04:07;100067.88;;;3.03;100.00
10824;BME280;39116;59.332;18.034;2023-04-27T00:06:29;100053.34;;;3.03;100.00
10824;BME280;39116;59.332;18.034;2023-04-27T00:08:52;100074.63;;;2.99;100.00
10824;BME280;39116;59.332;18.034;2023-04-27T00:11:15;100074.72;;;3.02;100.00
10824;BME280;39116;59.332;18.034;2023-04-27T00:13:37;100081.47;;;2.99;100.00
10824;BME280;39116;59.332;18.034;2023-04-27T00:15:59;100078.44;;;2.82;100.00
10824;BME280;39116;59.332;18.034;2023-04-27T00:18:23;100082.84;;;2.86;100.00
10824;BME280;39116;59.332;18.034;2023-04-27T00:20:45;100084.00;;;2.97;100.00
10824;BME280;39116;59.332;18.034;2023-04-27T00:23:07;100079.69;;;2.96;100.00
10824;BME280;39116;59.332;18.034;2023-04-27T00:25:29;100082.47;;;2.74;100.00
10824;BME280;39116;59.332;18.034;2023-04-27T00:27:52;100083.38;;;2.76;100.00
10824;BME280;39116;59.332;18.034;2023-04-27T00:30:14;100085.84;;;2.73;100.00
10824;BME280;39116;59.332;18.034;2023-04-27T00:32:36;100087.00;;;2.82;100.00
10824;BME280;39116;59.332;18.034;2023-04-27T00:34:58;100083.47;;;2.79;100.00
10824;BME280;39116;59.332;18.034;2023-04-27T00:37:20;100080.16;;;2.83;100.00
10824;BME280;39116;59.332;18.034;2023-04-27T00:39:41;100088.84;;;2.58;100.00
10824;BME280;39116;59.332;18.034;2023-04-27T00:42:04;100095.22;;;2.71;100.00
10824;BME280;39116;59.332;18.034;2023-04-27T00:44:32;100090.03;;;2.67;100.00
10824;BME280;39116;59.332;18.034;2023-04-27T00:46:54;100091.66;;;2.65;100.00
10824;BME280;39116;59.332;18.034;2023-04-27T00:49:16;100085.31;;;2.83;100.00
10824;BME280;39116;59.332;18.034;2023-04-27T00:51:38;100074.31;;;2.58;100.00
10824;BME280;39116;59.332;18.034;2023-04-27T00:54:00;100087.13;;;2.87;100.00
10824;BME280;39116;59.332;18.034;2023-04-27T00:56:23;100083.59;;;2.82;100.00
10824;BME280;39116;59.332;18.034;2023-04-27T00:58:45;100084.56;;;2.87;100.00
10824;BME280;39116;59.332;18.034;2023-04-27T01:01:08;100078.34;;;2.79;100.00
10824;BME280;39116;59.332;18.034;2023-04-27T01:03:31;100083.66;;;2.85;100.00
10824;BME280;39116;59.332;18.034;2023-04-27T01:05:53;100088.31;;;2.68;100.00
10824;BME280;39116;59.332;18.034;2023-04-27T01:08:16;100087.63;;;2.74;100.00
10824;BME280;39116;59.332;18.034;2023-04-27T01:10:38;100090.34;;;2.80;100.00
10824;BME280;39116;59.332;18.034;2023-04-27T01:13:00;100026.50;;;2.35;100.00
10824;BME280;39116;59.332;18.034;2023-04-27T01:15:23;100092.59;;;2.67;100.00
10824;BME280;39116;59.332;18.034;2023-04-27T01:17:46;100090.09;;;2.71;100.00
10824;BME280;39116;59.332;18.034;2023-04-27T01:20:09;100094.47;;;2.73;100.00
10824;BME280;39116;59.332;18.034;2023-04-27T01:22:31;100088.44;;;2.73;100.00
10824;BME280;39116;59.332;18.034;2023-04-27T01:24:54;100096.50;;;2.56;100.00
10824;BME280;39116;59.332;18.034;2023-04-27T01:27:16;100093.19;;;2.59;100.00
10824;BME280;39116;59.332;18.034;2023-04-27T01:29:38;100092.34;;;2.60;100.00
10824;BME280;39116;59.332;18.034;2023-04-27T01:32:00;100095.75;;;2.59;100.00
10824;BME280;39116;59.332;18.034;2023-04-27T01:34:22;100031.47;;;2.00;100.00
10824;BME280;39116;59.332;18.034;2023-04-27T01:36:44;100103.50;;;2.60;100.00
10824;BME280;39116;59.332;18.034;2023-04-27T01:39:06;100101.59;;;2.53;100.00
10824;BME280;39116;59.332;18.034;2023-04-27T01:41:30;100107.59;;;2.54;100.00
10824;BME280;39116;59.332;18.034;2023-04-27T01:43:52;100099.56;;;2.43;100.00
10824;BME280;39116;59.332;18.034;2023-04-27T01:46:14;100101.28;;;2.44;100.00
10824;BME280;39116;59.332;18.034;2023-04-27T01:48:37;100105.72;;;2.48;100.00
10824;BME280;39116;59.332;18.034;2023-04-27T01:50:59;100102.13;;;2.43;100.00
10824;BME280;39116;59.332;18.034;2023-04-27T01:53:21;100111.28;;;2.35;100.00
10824;BME280;39116;59.332;18.034;2023-04-27T01:55:42;100105.72;;;2.21;100.00
10824;BME280;39116;59.332;18.034;2023-04-27T01:58:06;100101.09;;;2.38;100.00
10824;BME280;39116;59.332;18.034;2023-04-27T02:00:28;100102.81;;;2.37;100.00
10824;BME280;39116;59.332;18.034;2023-04-27T02:02:49;100102.28;;;2.49;100.00
10824;BME280;39116;59.332;18.034;2023-04-27T02:05:12;100095.97;;;2.10;100.00
10824;BME280;39116;59.332;18.034;2023-04-27T02:07:34;100108.75;;;2.36;100.00
10824;BME280;39116;59.332;18.034;2023-04-27T02:09:56;100117.03;;;2.27;100.00
10824;BME280;39116;59.332;18.034;2023-04-27T02:12:18;100102.47;;;2.26;100.00
10824;BME280;39116;59.332;18.034;2023-04-27T02:14:41;100110.75;;;2.45;100.00
10824;BME280;39116;59.332;18.034;2023-04-27T02:17:03;100103.50;;;2.32;100.00
10824;BME280;39116;59.332;18.034;2023-04-27T02:19:25;100102.97;;;2.43;100.00
10824;BME280;39116;59.332;18.034;2023-04-27T02:21:47;100104.47;;;2.35;100.00
10824;BME280;39116;59.332;18.034;2023-04-27T02:24:09;100112.81;;;2.29;100.00
10824;BME280;39116;59.332;18.034;2023-04-27T02:26:31;100107.63;;;2.26;100.00
10824;BME280;39116;59.332;18.034;2023-04-27T02:28:53;100106.19;;;2.36;100.00
10824;BME280;39116;59.332;18.034;2023-04-27T02:31:16;100116.03;;;2.22;100.00
10824;BME280;39116;59.332;18.034;2023-04-27T02:33:38;100108.31;;;2.22;100.00
10824;BME280;39116;59.332;18.034;2023-04-27T02:36:00;100113.13;;;2.39;100.00
10824;BME280;39116;59.332;18.034;2023-04-27T02:38:22;100118.34;;;2.42;100.00
10824;BME280;39116;59.332;18.034;2023-04-27T02:40:43;100105.38;;;2.37;100.00
10824;BME280;39116;59.332;18.034;2023-04-27T02:43:05;100117.66;;;2.20;100.00
10824;BME280;39116;59.332;18.034;2023-04-27T02:45:27;100113.44;;;2.22;100.00
10824;BME280;39116;59.332;18.034;2023-04-27T02:47:51;100118.16;;;2.36;100.00
10824;BME280;39116;59.332;18.034;2023-04-27T02:50:13;100118.22;;;2.37;100.00
10824;BME280;39116;59.332;18.034;2023-04-27T02:52:35;100115.09;;;2.20;100.00
10824;BME280;39116;59.332;18.034;2023-04-27T02:54:56;100127.19;;;2.23;100.00
10824;BME280;39116;59.332;18.034;2023-04-27T02:57:18;100124.00;;;2.30;100.00
10824;BME280;39116;59.332;18.034;2023-04-27T02:59:40;100134.34;;;2.06;100.00
10824;BME280;39116;59.332;18.034;2023-04-27T03:02:02;100130.38;;;2.16;100.00
10824;BME280;39116;59.332;18.034;2023-04-27T03:04:25;100123.19;;;2.33;100.00
10824;BME280;39116;59.332;18.034;2023-04-27T03:06:47;100018.06;;;1.56;100.00
10824;BME280;39116;59.332;18.034;2023-04-27T03:09:10;100131.78;;;2.33;100.00
10824;BME280;39116;59.332;18.034;2023-04-27T03:11:32;100134.84;;;2.21;100.00
10824;BME280;39116;59.332;18.034;2023-04-27T03:13:54;100121.94;;;2.20;100.00
10824;BME280;39116;59.332;18.034;2023-04-27T03:16:16;100125.03;;;2.09;100.00
10824;BME280;39116;59.332;18.034;2023-04-27T03:18:38;100139.34;;;2.01;100.00
10824;BME280;39116;59.332;18.034;2023-04-27T03:21:06;100132.09;;;2.17;100.00
10824;BME280;39116;59.332;18.034;2023-04-27T03:23:28;100033.88;;;1.68;100.00
10824;BME280;39116;59.332;18.034;2023-04-27T03:25:50;100101.53;;;1.97;100.00
10824;BME280;39116;59.332;18.034;2023-04-27T03:28:12;100131.63;;;2.28;100.00
10824;BME280;39116;59.332;18.034;2023-04-27T03:30:34;100128.22;;;2.29;100.00
10824;BME280;39116;59.332;18.034;2023-04-27T03:32:56;100137.75;;;2.05;100.00
10824;BME280;39116;59.332;18.034;2023-04-27T03:35:18;100138.13;;;2.17;100.00
10824;BME280;39116;59.332;18.034;2023-04-27T03:37:42;100144.81;;;2.12;100.00
10824;BME280;39116;59.332;18.034;2023-04-27T03:40:06;100135.94;;;2.02;100.00
10824;BME280;39116;59.332;18.034;2023-04-27T03:42:28;100146.34;;;2.07;100.00
10824;BME280;39116;59.332;18.034;2023-04-27T03:44:50;100142.78;;;2.29;100.00
10824;BME280;39116;59.332;18.034;2023-04-27T03:47:12;100140.25;;;2.31;100.00
10824;BME280;39116;59.332;18.034;2023-04-27T03:49:34;100146.25;;;2.31;100.00
10824;BME280;39116;59.332;18.034;2023-04-27T03:51:56;100149.84;;;2.09;100.00
10824;BME280;39116;59.332;18.034;2023-04-27T03:54:19;100031.63;;;1.51;100.00
10824;BME280;39116;59.332;18.034;2023-04-27T03:56:41;100157.09;;;2.22;100.00
10824;BME280;39116;59.332;18.034;2023-04-27T03:59:03;100159.59;;;2.19;100.00
10824;BME280;39116;59.332;18.034;2023-04-27T04:01:25;100153.22;;;2.08;100.00
10824;BME280;39116;59.332;18.034;2023-04-27T04:03:47;100153.84;;;2.26;100.00
10824;BME280;39116;59.332;18.034;2023-04-27T04:06:10;100155.66;;;2.31;100.00
10824;BME280;39116;59.332;18.034;2023-04-27T04:08:32;100161.59;;;2.28;100.00
10824;BME280;39116;59.332;18.034;2023-04-27T04:10:56;100152.09;;;2.25;100.00
10824;BME280;39116;59.332;18.034;2023-04-27T04:13:18;100162.75;;;2.38;100.00
10824;BME280;39116;59.332;18.034;2023-04-27T04:15:40;100162.66;;;2.35;100.00
10824;BME280;39116;59.332;18.034;2023-04-27T04:18:02;100162.56;;;2.32;100.00
10824;BME280;39116;59.332;18.034;2023-04-27T04:20:24;100157.13;;;2.50;100.00
10824;BME280;39116;59.332;18.034;2023-04-27T04:22:46;100160.81;;;2.58;100.00
10824;BME280;39116;59.332;18.034;2023-04-27T04:25:08;100164.34;;;2.61;100.00
10824;BME280;39116;59.332;18.034;2023-04-27T04:27:32;100165.94;;;2.58;100.00
10824;BME280;39116;59.332;18.034;2023-04-27T04:29:54;100166.16;;;2.65;100.00
10824;BME280;39116;59.332;18.034;2023-04-27T04:32:16;100170.22;;;2.57;100.00
10824;BME280;39116;59.332;18.034;2023-04-27T04:34:39;100166.16;;;2.65;100.00
10824;BME280;39116;59.332;18.034;2023-04-27T04:37:01;100146.25;;;2.58;100.00
10824;BME280;39116;59.332;18.034;2023-04-27T04:39:24;100166.59;;;2.79;100.00
10824;BME280;39116;59.332;18.034;2023-04-27T04:41:46;100167.41;;;2.77;100.00
10824;BME280;39116;59.332;18.034;2023-04-27T04:44:11;100170.50;;;2.95;100.00
10824;BME280;39116;59.332;18.034;2023-04-27T04:46:33;100172.97;;;2.92;100.00
10824;BME280;39116;59.332;18.034;2023-04-27T04:48:56;100174.91;;;2.99;100.00
10824;BME280;39116;59.332;18.034;2023-04-27T04:51:18;100176.75;;;3.03;100.00
10824;BME280;39116;59.332;18.034;2023-04-27T04:53:40;100174.09;;;3.00;100.00
10824;BME280;39116;59.332;18.034;2023-04-27T04:56:09;100176.66;;;3.00;100.00
10824;BME280;39116;59.332;18.034;2023-04-27T04:58:31;100183.53;;;3.01;100.00
10824;BME280;39116;59.332;18.034;2023-04-27T05:00:54;100183.91;;;3.14;100.00
10824;BME280;39116;59.332;18.034;2023-04-27T05:03:16;100191.81;;;3.20;100.00
10824;BME280;39116;59.332;18.034;2023-04-27T05:05:38;100177.28;;;3.22;100.00
10824;BME280;39116;59.332;18.034;2023-04-27T05:08:00;100184.31;;;3.28;100.00
10824;BME280;39116;59.332;18.034;2023-04-27T05:10:22;100189.66;;;3.35;100.00
10824;BME280;39116;59.332;18.034;2023-04-27T05:12:44;100176.69;;;3.31;100.00
10824;BME280;39116;59.332;18.034;2023-04-27T05:15:06;100185.41;;;3.36;100.00
10824;BME280;39116;59.332;18.034;2023-04-27T05:17:30;100114.09;;;3.00;100.00
10824;BME280;39116;59.332;18.034;2023-04-27T05:19:52;100174.66;;;3.51;100.00
10824;BME280;39116;59.332;18.034;2023-04-27T05:22:14;100171.31;;;3.55;100.00
10824;BME280;39116;59.332;18.034;2023-04-27T05:24:36;100177.28;;;3.52;100.00
10824;BME280;39116;59.332;18.034;2023-04-27T05:26:58;100176.44;;;3.53;100.00
10824;BME280;39116;59.332;18.034;2023-04-27T05:29:19;100174.84;;;3.58;100.00
10824;BME280;39116;59.332;18.034;2023-04-27T05:31:42;100177.69;;;3.68;100.00
10824;BME280;39116;59.332;18.034;2023-04-27T05:34:05;100052.78;;;3.15;100.00
10824;BME280;39116;59.332;18.034;2023-04-27T05:36:29;100180.63;;;3.81;100.00
10824;BME280;39116;59.332;18.034;2023-04-27T05:38:51;100179.03;;;3.87;100.00
10824;BME280;39116;59.332;18.034;2023-04-27T05:41:13;100185.88;;;3.85;100.00
10824;BME280;39116;59.332;18.034;2023-04-27T05:43:35;100185.00;;;3.86;100.00
10824;BME280;39116;59.332;18.034;2023-04-27T05:45:58;100184.44;;;3.96;100.00
10824;BME280;39116;59.332;18.034;2023-04-27T05:48:20;100179.81;;;4.17;100.00
10824;BME280;39116;59.332;18.034;2023-04-27T05:50:43;100183.16;;;4.13;100.00
10824;BME280;39116;59.332;18.034;2023-04-27T05:53:05;100176.47;;;4.21;100.00
10824;BME280;39116;59.332;18.034;2023-04-27T05:55:27;100171.31;;;4.21;100.00
10824;BME280;39116;59.332;18.034;2023-04-27T05:57:49;100188.84;;;4.35;100.00
10824;BME280;39116;59.332;18.034;2023-04-27T06:00:12;100180.00;;;4.24;100.00
10824;BME280;39116;59.332;18.034;2023-04-27T06:02:34;100195.03;;;4.42;100.00
10824;BME280;39116;59.332;18.034;2023-04-27T06:04:56;100193.69;;;4.59;100.00
10824;BME280;39116;59.332;18.034;2023-04-27T06:07:19;100192.72;;;4.52;100.00
10824;BME280;39116;59.332;18.034;2023-04-27T06:09:41;100186.94;;;4.64;100.00
10824;BME280;39116;59.332;18.034;2023-04-27T06:12:04;100192.84;;;4.58;100.00
10824;BME280;39116;59.332;18.034;2023-04-27T06:14:27;100195.50;;;4.62;100.00
10824;BME280;39116;59.332;18.034;2023-04-27T06:16:49;100198.00;;;4.58;100.00
10824;BME280;39116;59.332;18.034;2023-04-27T06:19:11;100188.63;;;4.62;100.00
10824;BME280;39116;59.332;18.034;2023-04-27T06:21:33;100196.75;;;4.79;100.00
10824;BME280;39116;59.332;18.034;2023-04-27T06:23:56;100196.03;;;4.86;100.00
10824;BME280;39116;59.332;18.034;2023-04-27T06:26:18;100186.66;;;4.88;100.00
10824;BME280;39116;59.332;18.034;2023-04-27T06:28:40;100195.50;;;5.00;100.00
10824;BME280;39116;59.332;18.034;2023-04-27T06:31:02;100202.94;;;4.87;100.00
10824;BME280;39116;59.332;18.034;2023-04-27T06:33:24;100197.28;;;5.04;100.00
10824;BME280;39116;59.332;18.034;2023-04-27T06:35:46;100191.75;;;5.26;100.00
10824;BME280;39116;59.332;18.034;2023-04-27T06:38:08;100200.59;;;5.38;100.00
10824;BME280;39116;59.332;18.034;2023-04-27T06:40:32;100193.25;;;5.16;100.00
10824;BME280;39116;59.332;18.034;2023-04-27T06:42:53;100189.19;;;5.26;100.00
10824;BME280;39116;59.332;18.034;2023-04-27T06:45:15;100199.44;;;5.23;100.00
10824;BME280;39116;59.332;18.034;2023-04-27T06:47:37;100195.88;;;5.18;100.00
10824;BME280;39116;59.332;18.034;2023-04-27T06:49:59;100195.91;;;5.20;100.00
10824;BME280;39116;59.332;18.034;2023-04-27T06:52:21;100198.81;;;5.35;100.00
10824;BME280;39116;59.332;18.034;2023-04-27T06:54:43;100211.19;;;5.51;100.00
10824;BME280;39116;59.332;18.034;2023-04-27T06:57:06;100199.88;;;5.45;100.00
10824;BME280;39116;59.332;18.034;2023-04-27T06:59:28;100199.50;;;5.69;100.00
10824;BME280;39116;59.332;18.034;2023-04-27T07:01:50;100198.41;;;5.58;100.00
10824;BME280;39116;59.332;18.034;2023-04-27T07:04:12;100212.25;;;5.61;100.00
10824;BME280;39116;59.332;18.034;2023-04-27T07:06:34;100211.28;;;5.54;100.00
10824;BME280;39116;59.332;18.034;2023-04-27T07:08:56;100215.28;;;5.42;100.00
10824;BME280;39116;59.332;18.034;2023-04-27T07:11:18;100215.28;;;5.42;100.00
10824;BME280;39116;59.332;18.034;2023-04-27T07:13:41;100221.94;;;5.30;100.00
10824;BME280;39116;59.332;18.034;2023-04-27T07:16:04;100217.16;;;5.49;100.00
10824;BME280;39116;59.332;18.034;2023-04-27T07:18:26;100221.63;;;5.58;100.00
10824;BME280;39116;59.332;18.034;2023-04-27T07:20:48;100202.03;;;5.67;100.00
10824;BME280;39116;59.332;18.034;2023-04-27T07:23:10;100212.38;;;5.67;100.00
10824;BME280;39116;59.332;18.034;2023-04-27T07:25:32;100215.09;;;5.75;100.00
10824;BME280;39116;59.332;18.034;2023-04-27T07:27:55;100212.72;;;5.86;100.00
10824;BME280;39116;59.332;18.034;2023-04-27T07:30:20;100212.41;;;5.70;100.00
10824;BME280;39116;59.332;18.034;2023-04-27T07:32:43;100204.81;;;5.77;100.00
10824;BME280;39116;59.332;18.034;2023-04-27T07:35:06;100212.00;;;5.93;100.00
10824;BME280;39116;59.332;18.034;2023-04-27T07:37:28;100213.72;;;5.92;100.00
10824;BME280;39116;59.332;18.034;2023-04-27T07:39:50;100219.16;;;6.08;100.00
10824;BME280;39116;59.332;18.034;2023-04-27T07:42:12;100208.94;;;6.13;100.00
10824;BME280;39116;59.332;18.034;2023-04-27T07:44:35;100207.16;;;6.10;100.00
10824;BME280;39116;59.332;18.034;2023-04-27T07:46:58;100219.22;;;6.11;100.00
10824;BME280;39116;59.332;18.034;2023-04-27T07:49:24;100219.31;;;6.14;100.00
10824;BME280;39116;59.332;18.034;2023-04-27T07:51:47;100216.84;;;6.22;100.00
10824;BME280;39116;59.332;18.034;2023-04-27T07:54:09;100222.06;;;6.25;100.00
10824;BME280;39116;59.332;18.034;2023-04-27T07:56:31;100211.72;;;6.25;100.00
10824;BME280;39116;59.332;18.034;2023-04-27T07:58:53;100214.31;;;6.25;100.00
10824;BME280;39116;59.332;18.034;2023-04-27T08:01:15;100230.50;;;6.15;100.00
10824;BME280;39116;59.332;18.034;2023-04-27T08:03:38;100226.44;;;6.29;100.00
10824;BME280;39116;59.332;18.034;2023-04-27T08:06:00;100232.50;;;6.31;100.00
10824;BME280;39116;59.332;18.034;2023-04-27T08:08:24;100230.78;;;6.30;100.00
10824;BME280;39116;59.332;18.034;2023-04-27T08:10:46;100219.72;;;6.40;98.47
10824;BME280;39116;59.332;18.034;2023-04-27T08:13:08;100230.41;;;6.59;97.55
10824;BME280;39116;59.332;18.034;2023-04-27T08:15:30;100232.06;;;6.55;94.90
10824;BME280;39116;59.332;18.034;2023-04-27T08:17:51;100241.72;;;6.67;94.62
10824;BME280;39116;59.332;18.034;2023-04-27T08:20:15;100228.84;;;6.70;95.38
10824;BME280;39116;59.332;18.034;2023-04-27T08:22:37;100240.13;;;6.75;94.57
10824;BME280;39116;59.332;18.034;2023-04-27T08:24:59;100219.31;;;6.66;90.22
10824;BME280;39116;59.332;18.034;2023-04-27T08:27:21;100244.50;;;6.79;90.06
10824;BME280;39116;59.332;18.034;2023-04-27T08:29:46;100248.97;;;6.90;88.61
10824;BME280;39116;59.332;18.034;2023-04-27T08:32:08;100248.50;;;6.59;88.88
10824;BME280;39116;59.332;18.034;2023-04-27T08:34:30;100238.94;;;6.56;91.64
10824;BME280;39116;59.332;18.034;2023-04-27T08:36:54;100251.34;;;6.76;88.31
10824;BME280;39116;59.332;18.034;2023-04-27T08:39:16;100250.50;;;6.77;82.95
10824;BME280;39116;59.332;18.034;2023-04-27T08:41:41;100235.81;;;6.76;82.35
10824;BME280;39116;59.332;18.034;2023-04-27T08:44:06;100248.97;;;6.90;79.80
10824;BME280;39116;59.332;18.034;2023-04-27T08:46:28;100239.63;;;6.99;78.88
10824;BME280;39116;59.332;18.034;2023-04-27T08:48:51;100243.44;;;7.26;76.89
10824;BME280;39116;59.332;18.034;2023-04-27T08:51:14;100240.66;;;7.11;78.71
10824;BME280;39116;59.332;18.034;2023-04-27T08:53:45;100243.19;;;7.07;78.85
10824;BME280;39116;59.332;18.034;2023-04-27T08:56:08;100243.28;;;7.14;78.54
10824;BME280;39116;59.332;18.034;2023-04-27T08:58:38;100231.97;;;7.07;77.84
10824;BME280;39116;59.332;18.034;2023-04-27T09:01:04;100228.47;;;7.02;76.91
10824;BME280;39116;59.332;18.034;2023-04-27T09:03:26;100226.66;;;6.98;77.50
10824;BME280;39116;59.332;18.034;2023-04-27T09:05:48;100205.69;;;6.79;77.08
10824;BME280;39116;59.332;18.034;2023-04-27T09:08:10;100239.66;;;7.02;77.32
10824;BME280;39116;59.332;18.034;2023-04-27T09:10:44;100239.75;;;7.08;77.42
10824;BME280;39116;59.332;18.034;2023-04-27T09:13:06;100247.63;;;7.16;75.16
10824;BME280;39116;59.332;18.034;2023-04-27T09:15:28;100246.28;;;7.43;74.02
10824;BME280;39116;59.332;18.034;2023-04-27T09:17:54;100237.25;;;7.85;71.94
10824;BME280;39116;59.332;18.034;2023-04-27T09:20:16;100251.13;;;7.89;71.51
10824;BME280;39116;59.332;18.034;2023-04-27T09:22:42;100211.41;;;7.90;69.15
10824;BME280;39116;59.332;18.034;2023-04-27T09:25:05;100240.03;;;8.03;70.61
10824;BME280;39116;59.332;18.034;2023-04-27T09:27:28;100251.13;;;7.89;69.91
10824;BME280;39116;59.332;18.034;2023-04-27T09:29:50;100252.81;;;7.85;70.11
10824;BME280;39116;59.332;18.034;2023-04-27T09:32:15;100263.34;;;8.00;69.51
10824;BME280;39116;59.332;18.034;2023-04-27T09:34:38;100253.38;;;7.59;68.52
10824;BME280;39116;59.332;18.034;2023-04-27T09:37:00;100255.09;;;7.60;67.46
10824;BME280;39116;59.332;18.034;2023-04-27T09:39:22;100251.59;;;7.54;67.40
10824;BME280;39116;59.332;18.034;2023-04-27T09:41:44;100247.53;;;7.76;62.24
10824;BME280;39116;59.332;18.034;2023-04-27T09:44:08;100244.13;;;7.81;61.16
10824;BME280;39116;59.332;18.034;2023-04-27T09:46:32;100247.22;;;8.29;62.83
10824;BME280;39116;59.332;18.034;2023-04-27T09:48:55;100251.59;;;8.33;63.17
10824;BME280;39116;59.332;18.034;2023-04-27T09:51:17;100257.59;;;8.31;63.45
10824;BME280;39116;59.332;18.034;2023-04-27T09:53:43;100254.00;;;8.18;60.17
10824;BME280;39116;59.332;18.034;2023-04-27T09:56:19;100246.44;;;8.39;58.61
10824;BME280;39116;59.332;18.034;2023-04-27T09:58:58;100250.19;;;8.69;58.42
10824;BME280;39116;59.332;18.034;2023-04-27T10:01:32;100255.44;;;8.78;53.36
10824;BME280;39116;59.332;18.034;2023-04-27T10:04:15;100238.13;;;8.79;52.16
10824;BME280;39116;59.332;18.034;2023-04-27T10:06:57;100248.72;;;9.07;52.13
10824;BME280;39116;59.332;18.034;2023-04-27T10:09:20;100240.13;;;9.15;54.00
10824;BME280;39116;59.332;18.034;2023-04-27T10:11:44;100242.69;;;9.12;53.96
10824;BME280;39116;59.332;18.034;2023-04-27T10:14:08;100257.00;;;8.56;55.54
10824;BME280;39116;59.332;18.034;2023-04-27T10:16:43;100262.13;;;8.50;55.92
10824;BME280;39116;59.332;18.034;2023-04-27T10:19:08;100284.09;;;8.00;61.64
10824;BME280;39116;59.332;18.034;2023-04-27T10:21:30;100280.31;;;7.74;66.75
10824;BME280;39116;59.332;18.034;2023-04-27T10:23:52;100294.50;;;7.36;79.90
10824;BME280;39116;59.332;18.034;2023-04-27T10:26:21;100299.00;;;7.50;90.65
10824;BME280;39116;59.332;18.034;2023-04-27T10:28:43;100297.19;;;7.44;88.33
10824;BME280;39116;59.332;18.034;2023-04-27T10:31:09;100292.72;;;7.31;92.28
10824;BME280;39116;59.332;18.034;2023-04-27T10:33:41;100295.53;;;7.48;89.72
10824;BME280;39116;59.332;18.034;2023-04-27T10:36:13;100300.25;;;7.15;85.55
10824;BME280;39116;59.332;18.034;2023-04-27T10:38:39;100300.91;;;7.02;87.33
10824;BME280;39116;59.332;18.034;2023-04-27T10:41:02;100303.06;;;6.76;89.79
10824;BME280;39116;59.332;18.034;2023-04-27T10:43:25;100301.84;;;6.54;89.91
10824;BME280;39116;59.332;18.034;2023-04-27T10:45:48;100304.59;;;6.63;92.41
10824;BME280;39116;59.332;18.034;2023-04-27T10:48:12;100312.41;;;6.66;95.10
10824;BME280;39116;59.332;18.034;2023-04-27T10:50:36;100317.97;;;6.40;99.53
10824;BME280;39116;59.332;18.034;2023-04-27T10:52:59;100326.31;;;6.74;98.60
10824;BME280;39116;59.332;18.034;2023-04-27T10:55:22;100343.66;;;6.31;100.00
10824;BME280;39116;59.332;18.034;2023-04-27T10:57:46;100346.69;;;6.10;100.00
10824;BME280;39116;59.332;18.034;2023-04-27T11:00:09;100343.03;;;5.59;100.00
10824;BME280;39116;59.332;18.034;2023-04-27T11:02:33;100357.31;;;5.83;100.00
10824;BME280;39116;59.332;18.034;2023-04-27T11:04:55;100358.31;;;5.89;100.00
10824;BME280;39116;59.332;18.034;2023-04-27T11:07:24;100347.00;;;6.25;100.00
10824;BME280;39116;59.332;18.034;2023-04-27T11:09:47;100352.06;;;6.21;100.00
10824;BME280;39116;59.332;18.034;2023-04-27T11:12:11;100335.41;;;6.06;100.00
10824;BME280;39116;59.332;18.034;2023-04-27T11:14:34;100354.91;;;5.92;100.00
10824;BME280;39116;59.332;18.034;2023-04-27T11:16:57;100358.28;;;5.48;100.00
10824;BME280;39116;59.332;18.034;2023-04-27T11:19:19;100358.19;;;5.44;100.00
10824;BME280;39116;59.332;18.034;2023-04-27T11:21:41;100353.97;;;6.29;100.00
10824;BME280;39116;59.332;18.034;2023-04-27T11:24:06;100346.16;;;6.74;100.00
10824;BME280;39116;59.332;18.034;2023-04-27T11:26:28;100359.53;;;6.98;100.00
10824;BME280;39116;59.332;18.034;2023-04-27T11:28:57;100360.56;;;7.10;100.00
10824;BME280;39116;59.332;18.034;2023-04-27T11:31:19;100364.16;;;7.19;100.00
10824;BME280;39116;59.332;18.034;2023-04-27T11:33:47;100359.16;;;7.29;100.00
10824;BME280;39116;59.332;18.034;2023-04-27T11:36:15;100380.78;;;7.34;100.00
10824;BME280;39116;59.332;18.034;2023-04-27T11:38:37;100379.13;;;6.85;100.00
10824;BME280;39116;59.332;18.034;2023-04-27T11:41:05;100396.91;;;6.67;100.00
10824;BME280;39116;59.332;18.034;2023-04-27T11:43:27;100399.94;;;6.44;100.00
10824;BME280;39116;59.332;18.034;2023-04-27T11:45:49;100404.28;;;6.04;100.00
10824;BME280;39116;59.332;18.034;2023-04-27T11:48:15;100335.56;;;6.13;100.00
10824;BME280;39116;59.332;18.034;2023-04-27T11:50:37;100377.34;;;6.81;100.00
10824;BME280;39116;59.332;18.034;2023-04-27T11:52:59;100386.22;;;6.97;100.00
10824;BME280;39116;59.332;18.034;2023-04-27T11:55:21;100304.84;;;6.80;100.00
10824;BME280;39116;59.332;18.034;2023-04-27T11:57:45;100381.91;;;7.51;100.00
10824;BME280;39116;59.332;18.034;2023-04-27T12:00:08;100386.56;;;7.77;100.00
10824;BME280;39116;59.332;18.034;2023-04-27T12:02:33;100385.03;;;7.91;100.00
10824;BME280;39116;59.332;18.034;2023-04-27T12:04:55;100378.03;;;7.84;100.00
10824;BME280;39116;59.332;18.034;2023-04-27T12:07:19;100383.19;;;7.81;100.00
10824;BME280;39116;59.332;18.034;2023-04-27T12:09:41;100392.03;;;7.98;100.00
10824;BME280;39116;59.332;18.034;2023-04-27T12:12:03;100408.47;;;7.97;100.00
10824;BME280;39116;59.332;18.034;2023-04-27T12:14:27;100398.75;;;7.24;100.00
10824;BME280;39116;59.332;18.034;2023-04-27T12:16:49;100411.16;;;6.92;100.00
10824;BME280;39116;59.332;18.034;2023-04-27T12:19:11;100428.56;;;7.01;100.00
10824;BME280;39116;59.332;18.034;2023-04-27T12:21:33;100417.81;;;6.78;100.00